sensor_id;sensor_type;location;lat;lon;timestamp;pressure;altitude;pressure_sealevel;temperature;humidity
49825;BME280;35714;55.708;37.478;2023-02-21T00:02:05;97070.53;;;-5.46;50.81
49825;BME280;35714;55.708;37.478;2023-02-21T00:04:49;97065.63;;;-5.49;50.87
49825;BME280;35714;55.708;37.478;2023-02-21T00:07:33;97063.25;;;-5.44;51.00
49825;BME280;35714;55.708;37.478;2023-02-21T00:10:17;97062.88;;;-5.40;50.99
49825;BME280;35714;55.708;37.478;2023-02-21T00:13:02;97068.19;;;-5.34;51.06
49825;BME280;35714;55.708;37.478;2023-02-21T00:15:46;97052.31;;;-5.40;50.81
49825;BME280;35714;55.708;37.478;2023-02-21T00:18:35;97058.34;;;-5.47;50.58
49825;BME280;35714;55.708;37.478;2023-02-21T00:21:20;97054.22;;;-5.56;50.84
49825;BME280;35714;55.708;37.478;2023-02-21T00:24:04;97053.72;;;-5.66;51.09
49825;BME280;35714;55.708;37.478;2023-02-21T00:26:48;97050.06;;;-5.65;51.15
49825;BME280;35714;55.708;37.478;2023-02-21T00:29:33;97047.81;;;-5.68;50.95
49825;BME280;35714;55.708;37.478;2023-02-21T00:32:17;97050.03;;;-5.72;51.05
49825;BME280;35714;55.708;37.478;2023-02-21T00:35:01;97043.06;;;-5.80;51.22
49825;BME280;35714;55.708;37.478;2023-02-21T00:37:51;97034.91;;;-5.85;51.17
49825;BME280;35714;55.708;37.478;2023-02-21T00:40:36;97042.81;;;-5.85;51.29
49825;BME280;35714;55.708;37.478;2023-02-21T00:43:27;97045.19;;;-5.90;51.37
49825;BME280;35714;55.708;37.478;2023-02-21T00:46:11;97036.44;;;-5.97;51.04
49825;BME280;35714;55.708;37.478;2023-02-21T00:48:56;97038.44;;;-5.99;51.43
49825;BME280;35714;55.708;37.478;2023-02-21T00:51:40;97030.69;;;-6.01;51.47
49825;BME280;35714;55.708;37.478;2023-02-21T00:54:24;97026.19;;;-6.07;51.36
49825;BME280;35714;55.708;37.478;2023-02-21T00:57:08;97020.47;;;-6.10;51.80
49825;BME280;35714;55.708;37.478;2023-02-21T00:59:52;97006.03;;;-6.14;51.66
49825;BME280;35714;55.708;37.478;2023-02-21T01:02:36;97016.47;;;-6.06;51.63
49825;BME280;35714;55.708;37.478;2023-02-21T01:05:20;97006.28;;;-6.09;51.64
49825;BME280;35714;55.708;37.478;2023-02-21T01:08:04;97010.34;;;-6.07;51.52
49825;BME280;35714;55.708;37.478;2023-02-21T01:10:49;97015.63;;;-6.07;51.80
49825;BME280;35714;55.708;37.478;2023-02-21T01:13:33;97012.00;;;-6.06;51.50
49825;BME280;35714;55.708;37.478;2023-02-21T01:16:17;97007.72;;;-6.07;51.60
49825;BME280;35714;55.708;37.478;2023-02-21T01:19:01;97002.25;;;-6.05;51.75
49825;BME280;35714;55.708;37.478;2023-02-21T01:21:46;97002.50;;;-6.00;51.63
49825;BME280;35714;55.708;37.478;2023-02-21T01:24:30;96996.22;;;-5.99;51.53
49825;BME280;35714;55.708;37.478;2023-02-21T01:27:14;96996.41;;;-6.01;51.63
49825;BME280;35714;55.708;37.478;2023-02-21T01:29:58;96995.16;;;-6.05;51.68
49825;BME280;35714;55.708;37.478;2023-02-21T01:32:42;96993.09;;;-6.09;51.48
49825;BME280;35714;55.708;37.478;2023-02-21T01:35:27;96990.47;;;-6.09;51.41
49825;BME280;35714;55.708;37.478;2023-02-21T01:38:11;96989.19;;;-6.13;51.52
49825;BME280;35714;55.708;37.478;2023-02-21T01:40:55;96988.81;;;-6.10;51.55
49825;BME280;35714;55.708;37.478;2023-02-21T01:44:02;96985.94;;;-6.15;51.40
49825;BME280;35714;55.708;37.478;2023-02-21T01:46:47;96987.13;;;-6.18;51.41
49825;BME280;35714;55.708;37.478;2023-02-21T01:49:33;96984.81;;;-6.28;51.21
49825;BME280;35714;55.708;37.478;2023-02-21T01:52:19;96976.25;;;-6.51;50.94
49825;BME280;35714;55.708;37.478;2023-02-21T01:55:04;96980.13;;;-6.69;51.05
49825;BME280;35714;55.708;37.478;2023-02-21T01:57:50;96981.59;;;-6.81;51.29
49825;BME280;35714;55.708;37.478;2023-02-21T02:00:35;96987.97;;;-6.91;51.59
49825;BME280;35714;55.708;37.478;2023-02-21T02:03:19;96986.91;;;-6.96;51.76
49825;BME280;35714;55.708;37.478;2023-02-21T02:06:08;96981.84;;;-6.98;51.93
49825;BME280;35714;55.708;37.478;2023-02-21T02:08:53;96978.09;;;-7.03;51.94
49825;BME280;35714;55.708;37.478;2023-02-21T02:11:52;96979.94;;;-7.04;51.85
49825;BME280;35714;55.708;37.478;2023-02-21T02:15:14;96984.91;;;-7.09;51.97
49825;BME280;35714;55.708;37.478;2023-02-21T02:23:33;96979.81;;;-7.11;52.02
49825;BME280;35714;55.708;37.478;2023-02-21T02:29:14;96978.69;;;-7.23;52.01
49825;BME280;35714;55.708;37.478;2023-02-21T02:36:51;96981.13;;;-7.51;52.48
49825;BME280;35714;55.708;37.478;2023-02-21T02:39:32;96984.75;;;-7.52;52.54
49825;BME280;35714;55.708;37.478;2023-02-21T02:44:57;96977.94;;;-7.62;52.29
49825;BME280;35714;55.708;37.478;2023-02-21T02:47:30;96974.94;;;-7.58;52.72
49825;BME280;35714;55.708;37.478;2023-02-21T02:49:58;96973.78;;;-7.56;52.64
49825;BME280;35714;55.708;37.478;2023-02-21T02:52:26;96978.91;;;-7.63;52.24
49825;BME280;35714;55.708;37.478;2023-02-21T02:55:24;96975.41;;;-7.70;52.13
49825;BME280;35714;55.708;37.478;2023-02-21T02:57:54;96977.00;;;-7.84;52.39
49825;BME280;35714;55.708;37.478;2023-02-21T03:00:20;96973.00;;;-7.94;52.25
49825;BME280;35714;55.708;37.478;2023-02-21T03:10:48;96976.25;;;-8.54;52.89
49825;BME280;35714;55.708;37.478;2023-02-21T03:16:04;96977.19;;;-8.69;53.08
49825;BME280;35714;55.708;37.478;2023-02-21T03:18:53;96987.34;;;-8.66;53.17
49825;BME280;35714;55.708;37.478;2023-02-21T03:21:27;96973.63;;;-8.77;53.26
49825;BME280;35714;55.708;37.478;2023-02-21T03:23:56;96987.69;;;-8.69;52.93
49825;BME280;35714;55.708;37.478;2023-02-21T03:26:23;96983.13;;;-8.76;52.85
49825;BME280;35714;55.708;37.478;2023-02-21T03:28:55;96991.69;;;-8.74;53.39
49825;BME280;35714;55.708;37.478;2023-02-21T03:31:25;96966.81;;;-8.86;52.80
49825;BME280;35714;55.708;37.478;2023-02-21T03:33:53;96985.59;;;-8.74;53.03
49825;BME280;35714;55.708;37.478;2023-02-21T03:36:19;96987.69;;;-8.69;53.19
49825;BME280;35714;55.708;37.478;2023-02-21T03:38:45;96972.53;;;-8.59;53.53
49825;BME280;35714;55.708;37.478;2023-02-21T03:41:11;96968.88;;;-8.50;53.20
49825;BME280;35714;55.708;37.478;2023-02-21T03:43:38;96970.81;;;-8.44;53.10
49825;BME280;35714;55.708;37.478;2023-02-21T03:46:05;96975.16;;;-8.36;52.98
49825;BME280;35714;55.708;37.478;2023-02-21T03:48:30;96967.72;;;-8.32;52.49
49825;BME280;35714;55.708;37.478;2023-02-21T03:50:59;96972.63;;;-8.29;52.88
49825;BME280;35714;55.708;37.478;2023-02-21T03:53:29;96972.28;;;-8.26;52.54
49825;BME280;35714;55.708;37.478;2023-02-21T03:55:55;96970.97;;;-8.30;52.84
49825;BME280;35714;55.708;37.478;2023-02-21T03:58:29;96965.38;;;-8.27;52.82
49825;BME280;35714;55.708;37.478;2023-02-21T04:00:55;96967.13;;;-8.20;52.76
49825;BME280;35714;55.708;37.478;2023-02-21T04:03:22;96947.25;;;-8.22;52.31
49825;BME280;35714;55.708;37.478;2023-02-21T04:05:54;96968.97;;;-8.05;52.38
49825;BME280;35714;55.708;37.478;2023-02-21T04:08:20;96968.25;;;-7.99;52.14
49825;BME280;35714;55.708;37.478;2023-02-21T04:10:46;96956.09;;;-8.00;52.24
49825;BME280;35714;55.708;37.478;2023-02-21T04:13:12;96965.63;;;-7.99;51.84
49825;BME280;35714;55.708;37.478;2023-02-21T04:15:42;96966.16;;;-8.04;51.72
49825;BME280;35714;55.708;37.478;2023-02-21T04:18:08;96970.16;;;-8.08;51.81
49825;BME280;35714;55.708;37.478;2023-02-21T04:20:36;96969.22;;;-8.15;51.40
49825;BME280;35714;55.708;37.478;2023-02-21T04:23:03;96965.03;;;-8.24;51.75
49825;BME280;35714;55.708;37.478;2023-02-21T04:25:28;96971.34;;;-8.34;51.74
49825;BME280;35714;55.708;37.478;2023-02-21T04:28:00;96961.34;;;-8.53;51.64
49825;BME280;35714;55.708;37.478;2023-02-21T04:30:26;96973.47;;;-8.52;52.04
49825;BME280;35714;55.708;37.478;2023-02-21T04:32:51;96974.53;;;-8.61;51.96
49825;BME280;35714;55.708;37.478;2023-02-21T04:35:17;96986.72;;;-8.68;51.94
49825;BME280;35714;55.708;37.478;2023-02-21T04:37:44;96985.25;;;-8.71;52.15
49825;BME280;35714;55.708;37.478;2023-02-21T04:40:11;96989.22;;;-8.75;51.91
49825;BME280;35714;55.708;37.478;2023-02-21T04:42:38;96986.09;;;-8.79;52.26
49825;BME280;35714;55.708;37.478;2023-02-21T04:45:04;96983.13;;;-8.76;52.21
49825;BME280;35714;55.708;37.478;2023-02-21T04:47:30;96982.31;;;-8.76;52.24
49825;BME280;35714;55.708;37.478;2023-02-21T04:49:56;96992.66;;;-8.75;51.79
49825;BME280;35714;55.708;37.478;2023-02-21T04:52:23;96984.16;;;-8.77;51.95
49825;BME280;35714;55.708;37.478;2023-02-21T04:54:48;96986.09;;;-8.79;52.10
49825;BME280;35714;55.708;37.478;2023-02-21T04:57:14;96999.56;;;-8.74;52.35
49825;BME280;35714;55.708;37.478;2023-02-21T04:59:40;97001.00;;;-8.71;52.16
49825;BME280;35714;55.708;37.478;2023-02-21T05:02:06;96999.84;;;-8.68;51.68
49825;BME280;35714;55.708;37.478;2023-02-21T05:04:36;96997.84;;;-8.66;51.42
49825;BME280;35714;55.708;37.478;2023-02-21T05:07:02;96986.91;;;-8.70;51.79
49825;BME280;35714;55.708;37.478;2023-02-21T05:09:28;96994.25;;;-8.65;51.62
49825;BME280;35714;55.708;37.478;2023-02-21T05:11:54;96989.69;;;-8.72;51.67
49825;BME280;35714;55.708;37.478;2023-02-21T05:14:20;96994.94;;;-8.72;51.46
49825;BME280;35714;55.708;37.478;2023-02-21T05:16:45;96997.69;;;-8.65;51.89
49825;BME280;35714;55.708;37.478;2023-02-21T05:19:11;96994.53;;;-8.60;51.70
49825;BME280;35714;55.708;37.478;2023-02-21T05:21:37;96994.53;;;-8.60;51.39
49825;BME280;35714;55.708;37.478;2023-02-21T05:24:06;96993.22;;;-8.56;51.56
49825;BME280;35714;55.708;37.478;2023-02-21T05:26:35;97002.06;;;-8.57;51.18
49825;BME280;35714;55.708;37.478;2023-02-21T05:29:03;97003.72;;;-8.56;51.11
49825;BME280;35714;55.708;37.478;2023-02-21T05:31:29;97004.53;;;-8.56;51.27
49825;BME280;35714;55.708;37.478;2023-02-21T05:33:56;97001.44;;;-8.59;51.27
49825;BME280;35714;55.708;37.478;2023-02-21T05:36:21;97008.63;;;-8.53;51.09
49825;BME280;35714;55.708;37.478;2023-02-21T05:38:52;97006.28;;;-8.48;51.34
49825;BME280;35714;55.708;37.478;2023-02-21T05:41:19;97001.66;;;-8.46;51.19
49825;BME280;35714;55.708;37.478;2023-02-21T05:43:46;97005.69;;;-8.35;51.03
49825;BME280;35714;55.708;37.478;2023-02-21T05:46:30;97004.53;;;-8.32;51.05
49825;BME280;35714;55.708;37.478;2023-02-21T05:48:57;97010.06;;;-8.27;50.68
49825;BME280;35714;55.708;37.478;2023-02-21T05:51:23;97005.44;;;-8.25;50.85
49825;BME280;35714;55.708;37.478;2023-02-21T05:53:49;96989.56;;;-8.32;50.33
49825;BME280;35714;55.708;37.478;2023-02-21T05:56:15;97008.59;;;-8.07;50.45
49825;BME280;35714;55.708;37.478;2023-02-21T05:58:42;97001.56;;;-7.91;50.49
49825;BME280;35714;55.708;37.478;2023-02-21T06:01:08;96993.81;;;-7.70;49.98
49825;BME280;35714;55.708;37.478;2023-02-21T06:03:33;96992.28;;;-7.49;49.66
49825;BME280;35714;55.708;37.478;2023-02-21T06:05:59;97013.09;;;-7.24;49.75
49825;BME280;35714;55.708;37.478;2023-02-21T06:08:25;97007.53;;;-7.00;49.04
49825;BME280;35714;55.708;37.478;2023-02-21T06:10:51;97009.22;;;-6.77;48.92
49825;BME280;35714;55.708;37.478;2023-02-21T06:13:16;97009.00;;;-6.61;48.23
49825;BME280;35714;55.708;37.478;2023-02-21T06:15:42;97006.53;;;-6.62;47.11
49825;BME280;35714;55.708;37.478;2023-02-21T06:18:08;97006.31;;;-6.82;47.20
49825;BME280;35714;55.708;37.478;2023-02-21T06:20:33;97013.44;;;-6.98;46.77
49825;BME280;35714;55.708;37.478;2023-02-21T06:22:59;97016.28;;;-7.29;46.56
49825;BME280;35714;55.708;37.478;2023-02-21T06:25:25;97010.63;;;-7.56;47.24
49825;BME280;35714;55.708;37.478;2023-02-21T06:27:50;97003.97;;;-7.67;47.73
49825;BME280;35714;55.708;37.478;2023-02-21T06:30:16;97008.88;;;-7.64;47.67
49825;BME280;35714;55.708;37.478;2023-02-21T06:32:42;96995.44;;;-7.69;47.43
49825;BME280;35714;55.708;37.478;2023-02-21T06:35:08;97016.06;;;-7.57;47.19
49825;BME280;35714;55.708;37.478;2023-02-21T06:37:34;97015.75;;;-7.63;47.25
49825;BME280;35714;55.708;37.478;2023-02-21T06:39:59;97010.94;;;-7.74;47.55
49825;BME280;35714;55.708;37.478;2023-02-21T06:42:25;97005.50;;;-7.72;47.38
49825;BME280;35714;55.708;37.478;2023-02-21T06:44:51;97013.66;;;-7.67;47.41
49825;BME280;35714;55.708;37.478;2023-02-21T06:47:17;97007.25;;;-7.65;47.25
49825;BME280;35714;55.708;37.478;2023-02-21T06:49:42;97009.97;;;-7.58;47.69
49825;BME280;35714;55.708;37.478;2023-02-21T06:52:09;97017.22;;;-7.45;47.30
49825;BME280;35714;55.708;37.478;2023-02-21T06:54:35;97009.50;;;-7.47;46.88
49825;BME280;35714;55.708;37.478;2023-02-21T06:57:00;97027.56;;;-7.44;46.43
49825;BME280;35714;55.708;37.478;2023-02-21T06:59:27;97020.97;;;-7.54;46.22
49825;BME280;35714;55.708;37.478;2023-02-21T07:01:54;97022.22;;;-7.65;45.35
49825;BME280;35714;55.708;37.478;2023-02-21T07:04:20;97009.28;;;-7.37;45.78
49825;BME280;35714;55.708;37.478;2023-02-21T07:06:46;97024.41;;;-6.94;45.73
49825;BME280;35714;55.708;37.478;2023-02-21T07:09:11;97025.84;;;-6.40;44.82
49825;BME280;35714;55.708;37.478;2023-02-21T07:11:37;97026.34;;;-5.87;43.69
49825;BME280;35714;55.708;37.478;2023-02-21T07:14:03;97024.69;;;-5.38;44.21
49825;BME280;35714;55.708;37.478;2023-02-21T07:16:29;97034.19;;;-4.67;43.71
49825;BME280;35714;55.708;37.478;2023-02-21T07:18:55;97029.56;;;-3.90;42.29
49825;BME280;35714;55.708;37.478;2023-02-21T07:21:22;97034.63;;;-3.21;41.59
49825;BME280;35714;55.708;37.478;2023-02-21T07:23:48;97018.75;;;-2.56;40.76
49825;BME280;35714;55.708;37.478;2023-02-21T07:26:14;97034.25;;;-1.83;39.58
49825;BME280;35714;55.708;37.478;2023-02-21T07:28:40;97021.31;;;-1.22;38.98
49825;BME280;35714;55.708;37.478;2023-02-21T07:31:07;97027.47;;;-0.47;37.90
49825;BME280;35714;55.708;37.478;2023-02-21T07:33:32;97030.84;;;0.09;36.54
49825;BME280;35714;55.708;37.478;2023-02-21T07:35:59;97027.84;;;0.59;36.36
49825;BME280;35714;55.708;37.478;2023-02-21T07:38:27;97037.03;;;1.11;35.07
49825;BME280;35714;55.708;37.478;2023-02-21T07:40:54;97031.59;;;1.58;34.41
49825;BME280;35714;55.708;37.478;2023-02-21T07:43:20;97040.75;;;2.03;33.73
49825;BME280;35714;55.708;37.478;2023-02-21T07:45:46;97038.47;;;2.40;32.56
49825;BME280;35714;55.708;37.478;2023-02-21T07:48:12;97039.13;;;2.47;30.43
49825;BME280;35714;55.708;37.478;2023-02-21T07:50:42;97042.81;;;2.12;29.85
49825;BME280;35714;55.708;37.478;2023-02-21T07:53:09;97033.41;;;2.10;31.51
49825;BME280;35714;55.708;37.478;2023-02-21T07:55:35;97036.94;;;2.44;31.36
49825;BME280;35714;55.708;37.478;2023-02-21T07:58:01;97041.72;;;2.76;30.49
49825;BME280;35714;55.708;37.478;2023-02-21T08:00:27;97049.16;;;3.08;30.14
49825;BME280;35714;55.708;37.478;2023-02-21T08:02:52;97048.31;;;3.41;29.69
49825;BME280;35714;55.708;37.478;2023-02-21T08:05:19;97049.34;;;3.79;29.15
49825;BME280;35714;55.708;37.478;2023-02-21T08:07:45;97052.84;;;4.29;29.10
49825;BME280;35714;55.708;37.478;2023-02-21T08:10:12;97051.16;;;4.83;28.53
49825;BME280;35714;55.708;37.478;2023-02-21T08:12:38;97056.31;;;5.27;27.43
49825;BME280;35714;55.708;37.478;2023-02-21T08:15:04;97049.50;;;5.57;27.29
49825;BME280;35714;55.708;37.478;2023-02-21T08:17:31;97045.16;;;5.51;26.65
49825;BME280;35714;55.708;37.478;2023-02-21T08:19:56;97047.91;;;5.18;26.70
49825;BME280;35714;55.708;37.478;2023-02-21T08:22:22;97027.47;;;5.12;26.98
49825;BME280;35714;55.708;37.478;2023-02-21T08:24:49;97047.50;;;5.42;26.43
49825;BME280;35714;55.708;37.478;2023-02-21T08:27:15;97049.00;;;5.70;26.15
49825;BME280;35714;55.708;37.478;2023-02-21T08:29:41;97057.41;;;5.89;25.85
49825;BME280;35714;55.708;37.478;2023-02-21T08:32:07;97054.59;;;6.17;25.63
49825;BME280;35714;55.708;37.478;2023-02-21T08:34:33;97056.81;;;6.50;24.82
49825;BME280;35714;55.708;37.478;2023-02-21T08:36:59;97058.16;;;6.58;24.97
49825;BME280;35714;55.708;37.478;2023-02-21T08:39:25;97050.91;;;6.64;24.42
49825;BME280;35714;55.708;37.478;2023-02-21T08:41:54;97057.91;;;6.80;24.44
49825;BME280;35714;55.708;37.478;2023-02-21T08:44:21;97065.75;;;7.08;24.21
49825;BME280;35714;55.708;37.478;2023-02-21T08:46:47;97060.59;;;7.42;23.73
49825;BME280;35714;55.708;37.478;2023-02-21T08:49:13;97061.56;;;7.77;23.44
49825;BME280;35714;55.708;37.478;2023-02-21T08:51:39;97057.63;;;8.14;23.14
49825;BME280;35714;55.708;37.478;2023-02-21T08:54:05;97055.94;;;8.28;22.78
49825;BME280;35714;55.708;37.478;2023-02-21T08:56:31;97061.31;;;8.34;22.60
49825;BME280;35714;55.708;37.478;2023-02-21T08:58:57;97059.63;;;8.48;22.56
49825;BME280;35714;55.708;37.478;2023-02-21T09:01:28;97065.00;;;8.53;22.25
49825;BME280;35714;55.708;37.478;2023-02-21T09:03:54;97063.97;;;8.44;22.29
49825;BME280;35714;55.708;37.478;2023-02-21T09:06:20;97070.00;;;8.20;22.31
49825;BME280;35714;55.708;37.478;2023-02-21T09:08:45;97063.34;;;8.02;22.50
49825;BME280;35714;55.708;37.478;2023-02-21T09:11:11;97063.13;;;7.88;22.33
49825;BME280;35714;55.708;37.478;2023-02-21T09:13:36;97069.88;;;7.86;21.94
49825;BME280;35714;55.708;37.478;2023-02-21T09:16:03;97067.91;;;8.07;22.19
49825;BME280;35714;55.708;37.478;2023-02-21T09:18:29;97069.97;;;8.30;21.88
49825;BME280;35714;55.708;37.478;2023-02-21T09:20:56;97071.53;;;8.42;22.30
49825;BME280;35714;55.708;37.478;2023-02-21T09:23:24;97068.34;;;8.29;22.13
49825;BME280;35714;55.708;37.478;2023-02-21T09:25:50;97070.72;;;8.41;22.36
49825;BME280;35714;55.708;37.478;2023-02-21T09:28:17;97067.56;;;8.74;22.14
49825;BME280;35714;55.708;37.478;2023-02-21T09:30:44;97067.97;;;8.91;21.48
49825;BME280;35714;55.708;37.478;2023-02-21T09:33:10;97066.81;;;9.02;21.32
49825;BME280;35714;55.708;37.478;2023-02-21T09:35:36;97052.56;;;9.26;21.64
49825;BME280;35714;55.708;37.478;2023-02-21T09:38:03;97065.16;;;9.65;21.16
49825;BME280;35714;55.708;37.478;2023-02-21T09:43:02;97059.69;;;10.14;20.62
49825;BME280;35714;55.708;37.478;2023-02-21T09:45:32;97058.25;;;10.45;19.39
49825;BME280;35714;55.708;37.478;2023-02-21T09:48:03;97064.81;;;10.77;20.09
49825;BME280;35714;55.708;37.478;2023-02-21T09:50:36;97063.75;;;10.92;19.53
49825;BME280;35714;55.708;37.478;2023-02-21T09:53:05;97056.38;;;10.98;19.97
49825;BME280;35714;55.708;37.478;2023-02-21T09:55:37;97065.22;;;11.04;18.96
49825;BME280;35714;55.708;37.478;2023-02-21T09:58:09;97067.00;;;10.94;20.10
49825;BME280;35714;55.708;37.478;2023-02-21T10:00:36;97065.53;;;10.83;21.30
49825;BME280;35714;55.708;37.478;2023-02-21T10:03:06;97067.00;;;10.94;22.05
49825;BME280;35714;55.708;37.478;2023-02-21T10:06:11;97072.03;;;11.01;18.40
49825;BME280;35714;55.708;37.478;2023-02-21T10:08:58;97072.97;;;11.10;21.90
49825;BME280;35714;55.708;37.478;2023-02-21T10:11:34;97070.53;;;11.28;22.26
49825;BME280;35714;55.708;37.478;2023-02-21T10:16:55;97081.47;;;11.36;25.40
49825;BME280;35714;55.708;37.478;2023-02-21T10:19:51;97073.97;;;11.47;19.88
49825;BME280;35714;55.708;37.478;2023-02-21T10:22:25;97069.47;;;11.56;25.77
49825;BME280;35714;55.708;37.478;2023-02-21T10:24:51;97067.56;;;11.85;26.26
49825;BME280;35714;55.708;37.478;2023-02-21T10:27:23;97080.09;;;12.14;23.09
49825;BME280;35714;55.708;37.478;2023-02-21T10:30:09;97079.25;;;12.41;19.29
49825;BME280;35714;55.708;37.478;2023-02-21T10:32:41;97086.97;;;12.61;26.15
49825;BME280;35714;55.708;37.478;2023-02-21T10:35:06;97087.47;;;12.50;25.25
49825;BME280;35714;55.708;37.478;2023-02-21T10:37:46;97089.69;;;11.78;25.40
49825;BME280;35714;55.708;37.478;2023-02-21T10:40:29;97092.56;;;11.07;24.34
49825;BME280;35714;55.708;37.478;2023-02-21T10:43:21;97097.44;;;11.24;20.44
49825;BME280;35714;55.708;37.478;2023-02-21T10:48:37;97103.53;;;10.97;24.70
49825;BME280;35714;55.708;37.478;2023-02-21T10:51:09;97103.06;;;10.57;24.68
49825;BME280;35714;55.708;37.478;2023-02-21T10:53:36;97102.31;;;10.27;24.89
49825;BME280;35714;55.708;37.478;2023-02-21T10:58:50;97113.97;;;9.79;25.16
49825;BME280;35714;55.708;37.478;2023-02-21T11:06:49;97121.13;;;9.94;24.65
49825;BME280;35714;55.708;37.478;2023-02-21T11:09:35;97122.47;;;9.67;23.30
49825;BME280;35714;55.708;37.478;2023-02-21T11:12:06;97121.91;;;9.94;24.45
49825;BME280;35714;55.708;37.478;2023-02-21T11:14:40;97127.47;;;10.08;26.50
49825;BME280;35714;55.708;37.478;2023-02-21T11:17:27;97129.00;;;10.15;21.15
49825;BME280;35714;55.708;37.478;2023-02-21T11:20:19;97127.13;;;10.39;20.31
49825;BME280;35714;55.708;37.478;2023-02-21T11:22:48;97128.75;;;10.59;22.87
49825;BME280;35714;55.708;37.478;2023-02-21T11:25:23;97142.69;;;10.91;23.03
49825;BME280;35714;55.708;37.478;2023-02-21T11:30:34;97134.44;;;11.34;24.09
49825;BME280;35714;55.708;37.478;2023-02-21T11:33:01;97138.63;;;11.26;24.35
49825;BME280;35714;55.708;37.478;2023-02-21T11:38:07;97144.69;;;10.18;22.41
49825;BME280;35714;55.708;37.478;2023-02-21T11:40:49;97149.09;;;9.84;22.85
49825;BME280;35714;55.708;37.478;2023-02-21T11:43:32;97151.34;;;9.77;20.56
49825;BME280;35714;55.708;37.478;2023-02-21T11:51:45;97156.28;;;10.23;20.30
49825;BME280;35714;55.708;37.478;2023-02-21T11:54:14;97159.47;;;10.01;23.57
49825;BME280;35714;55.708;37.478;2023-02-21T11:59:55;97165.53;;;9.64;20.03
49825;BME280;35714;55.708;37.478;2023-02-21T12:10:56;97173.56;;;8.50;20.46
49825;BME280;35714;55.708;37.478;2023-02-21T12:13:37;97188.75;;;8.30;21.41
49825;BME280;35714;55.708;37.478;2023-02-21T12:21:44;97195.88;;;7.03;21.88
49825;BME280;35714;55.708;37.478;2023-02-21T12:30:20;97193.19;;;7.95;20.40
49825;BME280;35714;55.708;37.478;2023-02-21T12:36:14;97208.03;;;8.74;19.23
49825;BME280;35714;55.708;37.478;2023-02-21T12:38:53;97202.97;;;8.62;19.48
49825;BME280;35714;55.708;37.478;2023-02-21T12:41:47;97210.47;;;7.79;20.31
49825;BME280;35714;55.708;37.478;2023-02-21T12:44:18;97210.44;;;7.12;20.59
49825;BME280;35714;55.708;37.478;2023-02-21T12:49:45;97208.13;;;6.58;21.00
49825;BME280;35714;55.708;37.478;2023-02-21T12:52:25;97231.59;;;6.73;20.92
49825;BME280;35714;55.708;37.478;2023-02-21T12:55:05;97234.38;;;6.30;20.61
49825;BME280;35714;55.708;37.478;2023-02-21T12:57:57;97231.16;;;6.28;20.75
49825;BME280;35714;55.708;37.478;2023-02-21T13:00:37;97232.19;;;6.22;21.07
49825;BME280;35714;55.708;37.478;2023-02-21T13:03:21;97237.19;;;6.03;21.32
49825;BME280;35714;55.708;37.478;2023-02-21T13:05:56;97232.84;;;5.64;21.82
49825;BME280;35714;55.708;37.478;2023-02-21T13:08:31;97244.31;;;5.82;21.63
49825;BME280;35714;55.708;37.478;2023-02-21T13:13:39;97234.84;;;5.41;21.69
49825;BME280;35714;55.708;37.478;2023-02-21T13:16:07;97259.38;;;5.23;22.11
49825;BME280;35714;55.708;37.478;2023-02-21T13:18:59;97238.28;;;4.60;22.11
49825;BME280;35714;55.708;37.478;2023-02-21T13:29:47;97274.72;;;4.12;22.49
49825;BME280;35714;55.708;37.478;2023-02-21T13:32:17;97288.94;;;3.95;22.77
49825;BME280;35714;55.708;37.478;2023-02-21T13:34:53;97286.19;;;3.90;22.75
49825;BME280;35714;55.708;37.478;2023-02-21T13:37:23;97293.72;;;3.93;22.71
49825;BME280;35714;55.708;37.478;2023-02-21T13:39:53;97300.19;;;4.14;22.80
49825;BME280;35714;55.708;37.478;2023-02-21T13:42:24;97302.56;;;4.11;22.45
49825;BME280;35714;55.708;37.478;2023-02-21T13:45:04;97298.84;;;3.78;22.68
49825;BME280;35714;55.708;37.478;2023-02-21T13:55:29;97316.88;;;3.66;23.00
49825;BME280;35714;55.708;37.478;2023-02-21T14:05:23;97332.66;;;2.16;24.21
49825;BME280;35714;55.708;37.478;2023-02-21T14:08:05;97344.72;;;1.84;24.61
49825;BME280;35714;55.708;37.478;2023-02-21T14:15:56;97356.84;;;0.77;25.78
49825;BME280;35714;55.708;37.478;2023-02-21T14:18:31;97362.03;;;0.53;26.24
49825;BME280;35714;55.708;37.478;2023-02-21T14:21:35;97367.63;;;0.26;26.33
49825;BME280;35714;55.708;37.478;2023-02-21T14:32:14;97385.50;;;-2.21;28.99
49825;BME280;35714;55.708;37.478;2023-02-21T14:39:46;97404.81;;;-3.64;31.66
49825;BME280;35714;55.708;37.478;2023-02-21T14:47:56;97424.19;;;-4.56;33.08
49825;BME280;35714;55.708;37.478;2023-02-21T15:04:40;97449.84;;;-5.83;36.70
49825;BME280;35714;55.708;37.478;2023-02-21T15:09:39;97463.97;;;-6.13;37.42
49825;BME280;35714;55.708;37.478;2023-02-21T15:12:09;97472.66;;;-6.28;38.16
49825;BME280;35714;55.708;37.478;2023-02-21T15:14:40;97470.31;;;-6.46;38.00
49825;BME280;35714;55.708;37.478;2023-02-21T15:17:17;97463.31;;;-6.62;38.55
49825;BME280;35714;55.708;37.478;2023-02-21T15:19:43;97484.03;;;-6.50;38.34
49825;BME280;35714;55.708;37.478;2023-02-21T15:22:25;97488.97;;;-6.56;38.77
49825;BME280;35714;55.708;37.478;2023-02-21T15:32:41;97504.44;;;-6.84;39.30
49825;BME280;35714;55.708;37.478;2023-02-21T15:35:15;97512.53;;;-6.85;39.57
49825;BME280;35714;55.708;37.478;2023-02-21T15:37:44;97516.50;;;-6.90;39.80
49825;BME280;35714;55.708;37.478;2023-02-21T15:40:16;97509.00;;;-7.01;40.14
49825;BME280;35714;55.708;37.478;2023-02-21T15:42:44;97527.09;;;-7.06;40.10
49825;BME280;35714;55.708;37.478;2023-02-21T15:45:28;97526.63;;;-7.10;40.70
49825;BME280;35714;55.708;37.478;2023-02-21T15:47:55;97531.25;;;-7.20;41.16
49825;BME280;35714;55.708;37.478;2023-02-21T15:53:11;97551.34;;;-7.27;41.16
49825;BME280;35714;55.708;37.478;2023-02-21T15:55:38;97553.00;;;-7.34;41.98
49825;BME280;35714;55.708;37.478;2023-02-21T16:06:18;97570.97;;;-7.38;41.94
49825;BME280;35714;55.708;37.478;2023-02-21T16:11:47;97574.75;;;-7.32;41.86
49825;BME280;35714;55.708;37.478;2023-02-21T16:14:19;97584.94;;;-7.29;42.21